sensor_id;sensor_type;location;lat;lon;timestamp;pressure;altitude;pressure_sealevel;temperature;humidity
11912;BME280;6016;41.928;25.556;2023-07-20T00:00:58;98485.91;;;28.54;52.12
11912;BME280;6016;41.928;25.556;2023-07-20T00:03:25;98492.69;;;28.52;52.70
11912;BME280;6016;41.928;25.556;2023-07-20T00:05:52;98499.47;;;28.49;51.32
11912;BME280;6016;41.928;25.556;2023-07-20T00:08:20;98485.94;;;28.28;52.13
11912;BME280;6016;41.928;25.556;2023-07-20T00:10:47;98469.91;;;28.16;53.64
11912;BME280;6016;41.928;25.556;2023-07-20T00:13:14;98482.16;;;28.29;54.06
11912;BME280;6016;41.928;25.556;2023-07-20T00:15:44;98499.50;;;28.44;52.86
11912;BME280;6016;41.928;25.556;2023-07-20T00:18:11;98251.97;;;26.88;52.66
11912;BME280;6016;41.928;25.556;2023-07-20T00:20:38;98392.13;;;27.75;54.26
11912;BME280;6016;41.928;25.556;2023-07-20T00:23:04;98462.88;;;28.31;54.12
11912;BME280;6016;41.928;25.556;2023-07-20T00:25:33;98484.28;;;28.48;54.08
11912;BME280;6016;41.928;25.556;2023-07-20T00:28:00;98482.41;;;28.48;53.66
11912;BME280;6016;41.928;25.556;2023-07-20T00:30:27;98472.63;;;28.47;52.66
11912;BME280;6016;41.928;25.556;2023-07-20T00:32:53;98463.97;;;28.45;52.68
11912;BME280;6016;41.928;25.556;2023-07-20T00:35:20;98463.13;;;28.45;53.11
11912;BME280;6016;41.928;25.556;2023-07-20T00:37:47;98480.25;;;28.45;53.19
11912;BME280;6016;41.928;25.556;2023-07-20T00:40:14;98462.63;;;28.27;54.02
11912;BME280;6016;41.928;25.556;2023-07-20T00:42:44;98488.09;;;28.21;54.31
11912;BME280;6016;41.928;25.556;2023-07-20T00:45:11;98549.94;;;28.19;53.48
11912;BME280;6016;41.928;25.556;2023-07-20T00:47:38;98626.72;;;28.25;54.43
11912;BME280;6016;41.928;25.556;2023-07-20T00:50:06;98636.41;;;28.00;55.04
11912;BME280;6016;41.928;25.556;2023-07-20T00:52:33;98636.66;;;27.98;53.91
11912;BME280;6016;41.928;25.556;2023-07-20T00:55:00;98629.84;;;27.85;54.40
11912;BME280;6016;41.928;25.556;2023-07-20T00:57:27;98622.59;;;28.01;50.99
11912;BME280;6016;41.928;25.556;2023-07-20T00:59:56;98589.22;;;28.06;51.84
11912;BME280;6016;41.928;25.556;2023-07-20T01:02:23;98581.34;;;27.99;51.83
11912;BME280;6016;41.928;25.556;2023-07-20T01:04:50;98545.81;;;27.85;51.50
11912;BME280;6016;41.928;25.556;2023-07-20T01:07:24;98578.41;;;28.11;51.73
11912;BME280;6016;41.928;25.556;2023-07-20T01:09:57;98416.34;;;27.03;52.59
11912;BME280;6016;41.928;25.556;2023-07-20T01:12:30;98545.28;;;27.83;51.16
11912;BME280;6016;41.928;25.556;2023-07-20T01:15:01;98362.63;;;26.84;52.03
11912;BME280;6016;41.928;25.556;2023-07-20T01:17:28;98552.34;;;28.15;52.71
11912;BME280;6016;41.928;25.556;2023-07-20T01:19:54;98545.34;;;28.19;53.12
11912;BME280;6016;41.928;25.556;2023-07-20T01:25:34;98545.84;;;28.11;51.85
11912;BME280;6016;41.928;25.556;2023-07-20T01:31:24;98437.00;;;27.45;52.19
11912;BME280;6016;41.928;25.556;2023-07-20T01:33:54;98561.88;;;28.13;54.05
11912;BME280;6016;41.928;25.556;2023-07-20T01:36:23;98566.19;;;28.14;52.68
11912;BME280;6016;41.928;25.556;2023-07-20T01:38:51;98464.44;;;27.59;52.31
11912;BME280;6016;41.928;25.556;2023-07-20T01:41:18;98463.34;;;27.55;52.58
11912;BME280;6016;41.928;25.556;2023-07-20T01:43:46;98524.41;;;27.89;53.20
11912;BME280;6016;41.928;25.556;2023-07-20T01:46:13;98479.34;;;27.62;54.20
11912;BME280;6016;41.928;25.556;2023-07-20T01:48:41;98545.56;;;28.02;52.98
11912;BME280;6016;41.928;25.556;2023-07-20T01:51:08;98522.50;;;27.89;53.48
11912;BME280;6016;41.928;25.556;2023-07-20T01:53:35;98134.56;;;25.35;54.15
11912;BME280;6016;41.928;25.556;2023-07-20T01:56:02;98529.53;;;27.90;53.88
11912;BME280;6016;41.928;25.556;2023-07-20T01:58:29;98541.25;;;28.01;54.20
11912;BME280;6016;41.928;25.556;2023-07-20T02:00:55;98338.81;;;26.76;53.55
11912;BME280;6016;41.928;25.556;2023-07-20T02:03:22;98491.28;;;27.66;54.39
11912;BME280;6016;41.928;25.556;2023-07-20T02:05:53;98434.03;;;27.36;54.66
11912;BME280;6016;41.928;25.556;2023-07-20T02:08:20;98459.56;;;27.61;54.67
11912;BME280;6016;41.928;25.556;2023-07-20T02:10:47;98377.88;;;27.11;52.74
11912;BME280;6016;41.928;25.556;2023-07-20T02:13:14;98513.28;;;27.90;54.21
11912;BME280;6016;41.928;25.556;2023-07-20T02:15:41;98508.16;;;27.89;54.91
11912;BME280;6016;41.928;25.556;2023-07-20T02:18:08;98488.31;;;27.78;55.05
11912;BME280;6016;41.928;25.556;2023-07-20T02:20:35;98504.34;;;27.90;53.88
11912;BME280;6016;41.928;25.556;2023-07-20T02:23:03;98318.22;;;26.69;54.36
11912;BME280;6016;41.928;25.556;2023-07-20T02:25:30;98509.22;;;27.88;54.90
11912;BME280;6016;41.928;25.556;2023-07-20T02:27:57;98513.00;;;27.87;54.34
11912;BME280;6016;41.928;25.556;2023-07-20T02:30:24;98507.31;;;27.83;53.76
11912;BME280;6016;41.928;25.556;2023-07-20T02:32:52;98507.00;;;27.74;53.95
11912;BME280;6016;41.928;25.556;2023-07-20T02:35:19;98508.09;;;27.68;54.03
11912;BME280;6016;41.928;25.556;2023-07-20T02:37:46;98504.81;;;27.61;54.14
11912;BME280;6016;41.928;25.556;2023-07-20T02:40:14;98459.69;;;27.23;54.16
11912;BME280;6016;41.928;25.556;2023-07-20T02:42:41;98499.06;;;27.47;54.59
11912;BME280;6016;41.928;25.556;2023-07-20T02:45:09;98489.53;;;27.34;54.42
11912;BME280;6016;41.928;25.556;2023-07-20T02:47:35;98451.53;;;27.03;55.29
11912;BME280;6016;41.928;25.556;2023-07-20T02:50:03;98512.06;;;27.50;54.95
11912;BME280;6016;41.928;25.556;2023-07-20T02:52:30;98502.88;;;27.51;55.66
11912;BME280;6016;41.928;25.556;2023-07-20T02:54:56;98370.69;;;26.63;54.95
11912;BME280;6016;41.928;25.556;2023-07-20T02:57:25;98425.00;;;27.05;54.98
11912;BME280;6016;41.928;25.556;2023-07-20T02:59:52;98499.66;;;27.54;54.81
11912;BME280;6016;41.928;25.556;2023-07-20T03:02:19;98452.94;;;27.26;54.63
11912;BME280;6016;41.928;25.556;2023-07-20T03:04:46;98503.44;;;27.53;54.84
11912;BME280;6016;41.928;25.556;2023-07-20T03:07:13;98504.78;;;27.50;55.13
11912;BME280;6016;41.928;25.556;2023-07-20T03:09:39;98531.88;;;27.50;54.10
11912;BME280;6016;41.928;25.556;2023-07-20T03:12:07;98509.56;;;27.33;54.79
11912;BME280;6016;41.928;25.556;2023-07-20T03:14:36;98519.38;;;27.44;54.77
11912;BME280;6016;41.928;25.556;2023-07-20T03:17:03;98498.19;;;27.26;53.67
11912;BME280;6016;41.928;25.556;2023-07-20T03:19:30;98527.50;;;27.39;54.46
11912;BME280;6016;41.928;25.556;2023-07-20T03:21:56;98531.00;;;27.39;54.87
11912;BME280;6016;41.928;25.556;2023-07-20T03:24:23;98524.44;;;27.30;54.90
11912;BME280;6016;41.928;25.556;2023-07-20T03:26:50;98526.38;;;27.35;55.59
11912;BME280;6016;41.928;25.556;2023-07-20T03:29:17;98536.41;;;27.39;55.87
11912;BME280;6016;41.928;25.556;2023-07-20T03:31:45;98528.28;;;27.39;55.03
11912;BME280;6016;41.928;25.556;2023-07-20T03:34:12;98537.25;;;27.40;55.43
11912;BME280;6016;41.928;25.556;2023-07-20T03:36:38;98533.41;;;27.36;55.81
11912;BME280;6016;41.928;25.556;2023-07-20T03:39:05;98501.94;;;27.19;55.49
11912;BME280;6016;41.928;25.556;2023-07-20T03:41:32;98534.50;;;27.35;55.36
11912;BME280;6016;41.928;25.556;2023-07-20T03:43:59;98536.66;;;27.33;55.79
11912;BME280;6016;41.928;25.556;2023-07-20T03:46:25;98531.53;;;27.31;54.89
11912;BME280;6016;41.928;25.556;2023-07-20T03:48:54;98521.50;;;27.32;55.07
11912;BME280;6016;41.928;25.556;2023-07-20T03:51:21;98518.78;;;27.32;55.52
11912;BME280;6016;41.928;25.556;2023-07-20T03:53:47;98514.94;;;27.12;55.92
11912;BME280;6016;41.928;25.556;2023-07-20T03:56:14;98524.19;;;27.32;56.13
11912;BME280;6016;41.928;25.556;2023-07-20T03:58:41;98525.28;;;27.31;56.23
11912;BME280;6016;41.928;25.556;2023-07-20T04:01:08;98526.91;;;27.32;55.91
11912;BME280;6016;41.928;25.556;2023-07-20T04:03:35;98513.06;;;27.23;55.66
11912;BME280;6016;41.928;25.556;2023-07-20T04:06:04;98513.31;;;27.16;56.50
11912;BME280;6016;41.928;25.556;2023-07-20T04:08:31;98512.56;;;27.31;56.04
11912;BME280;6016;41.928;25.556;2023-07-20T04:10:58;98509.84;;;27.31;55.99
11912;BME280;6016;41.928;25.556;2023-07-20T04:13:27;98510.66;;;27.32;57.06
11912;BME280;6016;41.928;25.556;2023-07-20T04:15:54;98475.59;;;27.04;56.71
11912;BME280;6016;41.928;25.556;2023-07-20T04:18:21;98513.91;;;27.34;56.70
11912;BME280;6016;41.928;25.556;2023-07-20T04:20:48;98485.13;;;27.12;56.06
11912;BME280;6016;41.928;25.556;2023-07-20T04:23:16;98508.78;;;27.37;56.51
11912;BME280;6016;41.928;25.556;2023-07-20T04:25:43;98506.63;;;27.39;57.22
11912;BME280;6016;41.928;25.556;2023-07-20T04:28:10;98495.78;;;27.34;57.33
11912;BME280;6016;41.928;25.556;2023-07-20T04:30:38;98500.91;;;27.36;57.46
11912;BME280;6016;41.928;25.556;2023-07-20T04:33:05;98495.50;;;27.36;57.70
11912;BME280;6016;41.928;25.556;2023-07-20T04:35:46;98452.13;;;27.15;57.49
11912;BME280;6016;41.928;25.556;2023-07-20T04:38:13;98474.06;;;27.24;57.24
11912;BME280;6016;41.928;25.556;2023-07-20T04:40:42;98501.75;;;27.42;57.85
11912;BME280;6016;41.928;25.556;2023-07-20T04:43:09;98506.91;;;27.43;58.41
11912;BME280;6016;41.928;25.556;2023-07-20T04:45:36;98501.25;;;27.45;58.53
11912;BME280;6016;41.928;25.556;2023-07-20T04:48:04;98485.19;;;27.33;57.86
11912;BME280;6016;41.928;25.556;2023-07-20T04:50:31;98432.81;;;27.01;57.23
11912;BME280;6016;41.928;25.556;2023-07-20T04:52:58;98510.44;;;27.49;57.92
11912;BME280;6016;41.928;25.556;2023-07-20T04:55:25;98515.63;;;27.50;58.04
11912;BME280;6016;41.928;25.556;2023-07-20T04:57:53;98515.34;;;27.52;56.84
11912;BME280;6016;41.928;25.556;2023-07-20T05:00:20;98518.88;;;27.52;56.73
11912;BME280;6016;41.928;25.556;2023-07-20T05:02:47;98486.28;;;27.27;56.94
11912;BME280;6016;41.928;25.556;2023-07-20T05:05:14;98515.03;;;27.43;57.95
11912;BME280;6016;41.928;25.556;2023-07-20T05:07:41;98518.56;;;27.49;57.76
11912;BME280;6016;41.928;25.556;2023-07-20T05:10:08;98511.19;;;27.34;57.86
11912;BME280;6016;41.928;25.556;2023-07-20T05:12:35;98487.09;;;27.32;57.93
11912;BME280;6016;41.928;25.556;2023-07-20T05:15:04;98529.44;;;27.54;57.69
11912;BME280;6016;41.928;25.556;2023-07-20T05:17:31;98527.03;;;27.58;57.31
11912;BME280;6016;41.928;25.556;2023-07-20T05:19:58;98513.47;;;27.58;57.26
11912;BME280;6016;41.928;25.556;2023-07-20T05:22:25;98513.78;;;27.61;56.59
11912;BME280;6016;41.928;25.556;2023-07-20T05:24:51;98501.59;;;27.64;56.53
11912;BME280;6016;41.928;25.556;2023-07-20T05:27:18;98505.38;;;27.68;56.56
11912;BME280;6016;41.928;25.556;2023-07-20T05:29:45;98499.69;;;27.75;57.01
11912;BME280;6016;41.928;25.556;2023-07-20T05:32:14;98493.75;;;27.73;55.24
11912;BME280;6016;41.928;25.556;2023-07-20T05:34:41;98426.63;;;27.01;57.26
11912;BME280;6016;41.928;25.556;2023-07-20T05:37:07;98502.13;;;27.71;56.31
11912;BME280;6016;41.928;25.556;2023-07-20T05:39:34;98500.53;;;27.80;55.95
11912;BME280;6016;41.928;25.556;2023-07-20T05:42:01;98467.69;;;27.66;55.25
11912;BME280;6016;41.928;25.556;2023-07-20T05:44:28;98486.16;;;27.75;53.60
11912;BME280;6016;41.928;25.556;2023-07-20T05:46:55;98497.56;;;27.92;56.29
11912;BME280;6016;41.928;25.556;2023-07-20T05:49:23;98496.75;;;27.97;54.98
11912;BME280;6016;41.928;25.556;2023-07-20T05:51:50;98460.94;;;27.74;55.64
11912;BME280;6016;41.928;25.556;2023-07-20T05:54:17;98502.19;;;28.02;56.71
11912;BME280;6016;41.928;25.556;2023-07-20T05:56:45;98503.00;;;28.08;56.93
11912;BME280;6016;41.928;25.556;2023-07-20T05:59:12;98467.47;;;27.78;57.18
11912;BME280;6016;41.928;25.556;2023-07-20T06:01:39;98506.53;;;28.03;57.21
11912;BME280;6016;41.928;25.556;2023-07-20T06:04:06;98337.28;;;27.01;57.52
11912;BME280;6016;41.928;25.556;2023-07-20T06:06:34;98464.47;;;27.80;57.70
11912;BME280;6016;41.928;25.556;2023-07-20T06:09:01;98501.91;;;28.09;57.16
11912;BME280;6016;41.928;25.556;2023-07-20T06:11:29;98489.16;;;28.04;57.25
11912;BME280;6016;41.928;25.556;2023-07-20T06:13:57;98450.13;;;27.79;57.12
11912;BME280;6016;41.928;25.556;2023-07-20T06:16:23;98478.03;;;28.16;56.94
11912;BME280;6016;41.928;25.556;2023-07-20T06:18:50;98492.44;;;28.32;56.77
11912;BME280;6016;41.928;25.556;2023-07-20T06:21:17;98470.75;;;28.22;56.26
11912;BME280;6016;41.928;25.556;2023-07-20T06:23:45;98490.25;;;28.45;55.87
11912;BME280;6016;41.928;25.556;2023-07-20T06:26:12;98497.31;;;28.51;55.45
11912;BME280;6016;41.928;25.556;2023-07-20T06:28:39;98493.53;;;28.52;54.87
11912;BME280;6016;41.928;25.556;2023-07-20T06:31:06;98495.94;;;28.54;55.01
11912;BME280;6016;41.928;25.556;2023-07-20T06:33:33;98467.47;;;28.46;55.16
11912;BME280;6016;41.928;25.556;2023-07-20T06:36:00;98477.75;;;28.64;55.11
11912;BME280;6016;41.928;25.556;2023-07-20T06:38:27;98473.13;;;28.70;54.15
11912;BME280;6016;41.928;25.556;2023-07-20T06:40:56;98477.22;;;28.68;54.82
11912;BME280;6016;41.928;25.556;2023-07-20T06:43:23;98464.72;;;28.61;54.71
11912;BME280;6016;41.928;25.556;2023-07-20T06:45:52;98485.03;;;28.79;55.31
11912;BME280;6016;41.928;25.556;2023-07-20T06:48:20;98448.44;;;28.61;53.40
11912;BME280;6016;41.928;25.556;2023-07-20T06:50:47;98485.59;;;28.87;54.70
11912;BME280;6016;41.928;25.556;2023-07-20T06:53:14;98488.59;;;28.90;54.05
11912;BME280;6016;41.928;25.556;2023-07-20T06:55:42;98461.44;;;28.80;54.12
11912;BME280;6016;41.928;25.556;2023-07-20T06:58:11;98467.97;;;28.89;53.92
11912;BME280;6016;41.928;25.556;2023-07-20T07:00:38;98474.13;;;29.05;54.47
11912;BME280;6016;41.928;25.556;2023-07-20T07:03:05;98474.38;;;29.09;53.21
11912;BME280;6016;41.928;25.556;2023-07-20T07:05:36;98473.28;;;29.15;54.08
11912;BME280;6016;41.928;25.556;2023-07-20T07:08:04;98453.75;;;29.08;52.41
11912;BME280;6016;41.928;25.556;2023-07-20T07:10:31;98474.91;;;29.16;53.80
11912;BME280;6016;41.928;25.556;2023-07-20T07:13:07;98447.22;;;29.09;53.38
11912;BME280;6016;41.928;25.556;2023-07-20T07:15:35;98440.91;;;29.19;53.98
11912;BME280;6016;41.928;25.556;2023-07-20T07:18:02;98458.78;;;29.36;52.96
11912;BME280;6016;41.928;25.556;2023-07-20T07:20:29;98459.31;;;29.43;53.57
11912;BME280;6016;41.928;25.556;2023-07-20T07:22:56;98456.28;;;29.50;53.59
11912;BME280;6016;41.928;25.556;2023-07-20T07:25:22;98455.69;;;29.58;52.79
11912;BME280;6016;41.928;25.556;2023-07-20T07:27:50;98446.16;;;29.60;52.70
11912;BME280;6016;41.928;25.556;2023-07-20T07:30:17;98445.00;;;29.72;53.32
11912;BME280;6016;41.928;25.556;2023-07-20T07:32:46;98454.47;;;29.80;53.28
11912;BME280;6016;41.928;25.556;2023-07-20T07:35:12;98447.28;;;29.89;53.30
11912;BME280;6016;41.928;25.556;2023-07-20T07:37:39;98453.19;;;30.01;52.59
11912;BME280;6016;41.928;25.556;2023-07-20T07:40:07;98455.84;;;30.12;51.75
11912;BME280;6016;41.928;25.556;2023-07-20T07:42:34;98471.00;;;30.23;51.50
11912;BME280;6016;41.928;25.556;2023-07-20T07:45:01;98409.66;;;30.07;49.73
11912;BME280;6016;41.928;25.556;2023-07-20T07:47:28;98412.00;;;30.18;50.46
11912;BME280;6016;41.928;25.556;2023-07-20T07:49:56;98441.56;;;30.55;49.72
11912;BME280;6016;41.928;25.556;2023-07-20T07:52:24;98447.75;;;30.60;50.07
11912;BME280;6016;41.928;25.556;2023-07-20T07:54:50;98401.69;;;30.40;49.91
11912;BME280;6016;41.928;25.556;2023-07-20T07:57:17;98435.47;;;30.68;49.51
11912;BME280;6016;41.928;25.556;2023-07-20T07:59:44;98424.28;;;30.70;49.08
11912;BME280;6016;41.928;25.556;2023-07-20T08:02:11;98456.06;;;30.99;48.07
11912;BME280;6016;41.928;25.556;2023-07-20T08:04:38;98457.84;;;31.09;48.52
11912;BME280;6016;41.928;25.556;2023-07-20T08:07:08;98454.75;;;31.15;49.00
11912;BME280;6016;41.928;25.556;2023-07-20T08:09:35;98418.97;;;31.03;48.81
11912;BME280;6016;41.928;25.556;2023-07-20T08:12:02;98440.16;;;31.30;48.17
11912;BME280;6016;41.928;25.556;2023-07-20T08:14:31;98397.78;;;31.19;47.62
11912;BME280;6016;41.928;25.556;2023-07-20T08:16:59;98449.38;;;31.54;47.83
11912;BME280;6016;41.928;25.556;2023-07-20T08:19:26;98453.38;;;31.62;47.34
11912;BME280;6016;41.928;25.556;2023-07-20T08:21:52;98461.09;;;31.74;47.39
11912;BME280;6016;41.928;25.556;2023-07-20T08:24:21;98442.59;;;31.70;47.88
11912;BME280;6016;41.928;25.556;2023-07-20T08:26:47;98456.59;;;31.83;48.11
11912;BME280;6016;41.928;25.556;2023-07-20T08:29:14;98459.47;;;31.92;46.37
11912;BME280;6016;41.928;25.556;2023-07-20T08:31:41;98451.50;;;31.95;47.15
11912;BME280;6016;41.928;25.556;2023-07-20T08:34:08;98410.84;;;31.80;47.79
11912;BME280;6016;41.928;25.556;2023-07-20T08:36:35;98448.72;;;32.14;46.43
11912;BME280;6016;41.928;25.556;2023-07-20T08:39:06;98447.84;;;32.19;46.83
11912;BME280;6016;41.928;25.556;2023-07-20T08:41:35;98426.69;;;32.11;45.97
11912;BME280;6016;41.928;25.556;2023-07-20T08:44:03;98364.97;;;31.82;45.88
11912;BME280;6016;41.928;25.556;2023-07-20T08:46:30;98358.69;;;31.81;45.10
11912;BME280;6016;41.928;25.556;2023-07-20T08:48:58;98437.06;;;32.42;44.47
11912;BME280;6016;41.928;25.556;2023-07-20T08:51:25;98433.25;;;32.43;45.66
11912;BME280;6016;41.928;25.556;2023-07-20T08:53:53;98420.78;;;32.37;44.22
11912;BME280;6016;41.928;25.556;2023-07-20T08:56:20;98441.94;;;32.59;44.23
11912;BME280;6016;41.928;25.556;2023-07-20T08:58:49;98439.34;;;32.68;44.50
11912;BME280;6016;41.928;25.556;2023-07-20T09:01:17;98433.75;;;32.59;42.96
11912;BME280;6016;41.928;25.556;2023-07-20T09:03:45;98443.88;;;32.87;43.77
11912;BME280;6016;41.928;25.556;2023-07-20T09:06:12;98435.50;;;32.97;42.63
11912;BME280;6016;41.928;25.556;2023-07-20T09:08:39;98446.09;;;32.98;42.78
11912;BME280;6016;41.928;25.556;2023-07-20T09:11:07;98438.19;;;33.11;43.55
11912;BME280;6016;41.928;25.556;2023-07-20T09:13:34;98342.63;;;32.55;43.14
11912;BME280;6016;41.928;25.556;2023-07-20T09:16:03;98407.13;;;33.07;43.16
11912;BME280;6016;41.928;25.556;2023-07-20T09:18:31;98445.53;;;33.38;42.68
11912;BME280;6016;41.928;25.556;2023-07-20T09:21:01;98444.91;;;33.42;41.73
11912;BME280;6016;41.928;25.556;2023-07-20T09:23:32;98430.72;;;33.39;42.24
11912;BME280;6016;41.928;25.556;2023-07-20T09:26:00;98439.44;;;33.56;42.88
11912;BME280;6016;41.928;25.556;2023-07-20T09:28:26;98436.47;;;33.66;42.61
11912;BME280;6016;41.928;25.556;2023-07-20T09:30:54;98428.81;;;33.77;42.50
11912;BME280;6016;41.928;25.556;2023-07-20T09:33:24;98421.78;;;33.85;42.52
11912;BME280;6016;41.928;25.556;2023-07-20T09:35:51;98418.66;;;34.00;42.44
11912;BME280;6016;41.928;25.556;2023-07-20T09:38:18;98386.44;;;33.97;42.09
11912;BME280;6016;41.928;25.556;2023-07-20T09:40:44;98377.69;;;34.09;40.31
11912;BME280;6016;41.928;25.556;2023-07-20T09:43:12;98416.66;;;34.46;41.12
11912;BME280;6016;41.928;25.556;2023-07-20T09:45:42;98410.91;;;34.57;40.13
11912;BME280;6016;41.928;25.556;2023-07-20T09:48:11;98395.13;;;34.54;38.75
11912;BME280;6016;41.928;25.556;2023-07-20T09:50:43;98391.72;;;34.57;39.89
11912;BME280;6016;41.928;25.556;2023-07-20T09:53:15;98381.78;;;34.61;39.42
11912;BME280;6016;41.928;25.556;2023-07-20T09:55:44;98366.59;;;34.55;38.96
11912;BME280;6016;41.928;25.556;2023-07-20T09:58:11;98390.84;;;34.79;38.68
11912;BME280;6016;41.928;25.556;2023-07-20T10:00:40;98381.03;;;34.87;38.19
11912;BME280;6016;41.928;25.556;2023-07-20T10:03:11;98383.59;;;34.92;39.34
11912;BME280;6016;41.928;25.556;2023-07-20T10:05:43;98360.22;;;34.86;38.08
11912;BME280;6016;41.928;25.556;2023-07-20T10:08:12;98364.56;;;34.87;40.03
11912;BME280;6016;41.928;25.556;2023-07-20T10:10:41;98376.69;;;34.95;39.46
11912;BME280;6016;41.928;25.556;2023-07-20T10:13:11;98376.97;;;34.84;38.79
11912;BME280;6016;41.928;25.556;2023-07-20T10:15:43;98353.28;;;34.79;38.49
11912;BME280;6016;41.928;25.556;2023-07-20T10:18:14;98366.03;;;34.93;38.48
11912;BME280;6016;41.928;25.556;2023-07-20T10:20:44;98343.44;;;34.78;39.64
11912;BME280;6016;41.928;25.556;2023-07-20T10:23:14;98333.78;;;34.81;38.30
11912;BME280;6016;41.928;25.556;2023-07-20T10:25:41;98325.56;;;34.81;37.35
11912;BME280;6016;41.928;25.556;2023-07-20T10:28:10;98331.22;;;34.93;37.06
11912;BME280;6016;41.928;25.556;2023-07-20T10:30:37;98303.16;;;34.79;36.78
11912;BME280;6016;41.928;25.556;2023-07-20T10:33:23;98337.00;;;35.01;37.30
11912;BME280;6016;41.928;25.556;2023-07-20T10:35:51;98334.47;;;35.04;36.98
11912;BME280;6016;41.928;25.556;2023-07-20T10:38:20;98297.50;;;34.84;36.78
11912;BME280;6016;41.928;25.556;2023-07-20T10:40:54;98337.06;;;35.10;37.82
11912;BME280;6016;41.928;25.556;2023-07-20T10:43:21;98158.47;;;33.97;37.13
11912;BME280;6016;41.928;25.556;2023-07-20T10:45:49;98287.66;;;34.92;36.68
11912;BME280;6016;41.928;25.556;2023-07-20T10:48:21;98313.16;;;35.01;38.19
11912;BME280;6016;41.928;25.556;2023-07-20T10:51:14;98321.53;;;35.31;37.70
11912;BME280;6016;41.928;25.556;2023-07-20T10:53:49;98282.19;;;35.01;38.17
11912;BME280;6016;41.928;25.556;2023-07-20T10:56:19;98314.91;;;35.32;37.90
11912;BME280;6016;41.928;25.556;2023-07-20T10:59:00;98301.88;;;35.12;37.91
11912;BME280;6016;41.928;25.556;2023-07-20T11:01:28;98314.28;;;35.18;35.24
11912;BME280;6016;41.928;25.556;2023-07-20T11:03:57;98306.06;;;35.18;35.93
11912;BME280;6016;41.928;25.556;2023-07-20T11:06:32;98304.44;;;35.34;37.70
11912;BME280;6016;41.928;25.556;2023-07-20T11:09:06;98307.31;;;35.38;36.00
11912;BME280;6016;41.928;25.556;2023-07-20T11:11:34;98295.72;;;35.41;36.85
11912;BME280;6016;41.928;25.556;2023-07-20T11:14:03;98293.94;;;35.45;35.93
11912;BME280;6016;41.928;25.556;2023-07-20T11:16:35;98283.78;;;35.46;35.48
11912;BME280;6016;41.928;25.556;2023-07-20T11:19:02;98271.81;;;35.51;35.91
11912;BME280;6016;41.928;25.556;2023-07-20T11:21:30;98263.56;;;35.51;37.29
11912;BME280;6016;41.928;25.556;2023-07-20T11:24:04;98224.78;;;35.22;35.54
11912;BME280;6016;41.928;25.556;2023-07-20T11:26:39;98243.78;;;35.36;35.59
11912;BME280;6016;41.928;25.556;2023-07-20T11:29:08;98262.44;;;35.52;35.24
11912;BME280;6016;41.928;25.556;2023-07-20T11:31:35;98259.72;;;35.60;36.40
11912;BME280;6016;41.928;25.556;2023-07-20T11:34:02;98236.13;;;35.51;37.29
11912;BME280;6016;41.928;25.556;2023-07-20T11:36:29;98250.63;;;35.69;36.07
11912;BME280;6016;41.928;25.556;2023-07-20T11:38:57;98245.16;;;35.69;36.62
11912;BME280;6016;41.928;25.556;2023-07-20T11:41:26;98199.22;;;35.48;35.50
11912;BME280;6016;41.928;25.556;2023-07-20T11:43:54;98244.00;;;35.70;36.18
11912;BME280;6016;41.928;25.556;2023-07-20T11:46:21;98248.03;;;35.72;34.91
11912;BME280;6016;41.928;25.556;2023-07-20T11:48:48;98244.63;;;35.75;35.87
11912;BME280;6016;41.928;25.556;2023-07-20T11:51:15;98214.31;;;35.72;34.72
11912;BME280;6016;41.928;25.556;2023-07-20T11:53:43;98177.41;;;35.60;35.12
11912;BME280;6016;41.928;25.556;2023-07-20T11:56:11;98221.75;;;36.01;34.05
11912;BME280;6016;41.928;25.556;2023-07-20T11:58:43;98218.38;;;36.04;34.49
11912;BME280;6016;41.928;25.556;2023-07-20T12:01:11;98163.13;;;35.76;34.63
11912;BME280;6016;41.928;25.556;2023-07-20T12:03:38;98203.50;;;36.06;36.06
11912;BME280;6016;41.928;25.556;2023-07-20T12:06:09;98202.84;;;36.09;35.60
11912;BME280;6016;41.928;25.556;2023-07-20T12:08:38;98204.91;;;36.12;36.09
11912;BME280;6016;41.928;25.556;2023-07-20T12:11:06;98200.03;;;36.17;33.82
11912;BME280;6016;41.928;25.556;2023-07-20T12:13:37;97680.22;;;32.72;35.36
11912;BME280;6016;41.928;25.556;2023-07-20T12:16:10;98167.63;;;35.81;35.75
11912;BME280;6016;41.928;25.556;2023-07-20T12:18:38;98095.97;;;35.43;34.51
11912;BME280;6016;41.928;25.556;2023-07-20T12:21:06;98130.94;;;35.85;35.10
11912;BME280;6016;41.928;25.556;2023-07-20T12:23:38;98107.94;;;35.69;33.35
11912;BME280;6016;41.928;25.556;2023-07-20T12:26:09;98198.66;;;36.32;32.91
11912;BME280;6016;41.928;25.556;2023-07-20T12:28:39;98202.19;;;36.33;33.45
11912;BME280;6016;41.928;25.556;2023-07-20T12:31:07;98153.78;;;35.98;34.53
11912;BME280;6016;41.928;25.556;2023-07-20T12:33:36;98142.47;;;35.70;33.33
11912;BME280;6016;41.928;25.556;2023-07-20T12:36:04;98153.22;;;35.84;33.86
11912;BME280;6016;41.928;25.556;2023-07-20T12:38:31;98186.22;;;36.05;33.85
11912;BME280;6016;41.928;25.556;2023-07-20T12:41:00;98193.66;;;36.04;35.92
11912;BME280;6016;41.928;25.556;2023-07-20T12:43:27;98191.75;;;35.96;36.17
11912;BME280;6016;41.928;25.556;2023-07-20T12:45:54;98193.09;;;35.81;35.38
11912;BME280;6016;41.928;25.556;2023-07-20T12:48:21;98199.34;;;35.60;36.57
11912;BME280;6016;41.928;25.556;2023-07-20T12:50:50;98197.09;;;35.45;36.58
11912;BME280;6016;41.928;25.556;2023-07-20T12:53:17;98191.53;;;35.24;36.38
11912;BME280;6016;41.928;25.556;2023-07-20T12:55:44;98194.59;;;35.31;35.54
11912;BME280;6016;41.928;25.556;2023-07-20T12:58:11;98163.03;;;34.98;37.26
11912;BME280;6016;41.928;25.556;2023-07-20T13:00:38;98194.63;;;35.13;37.46
11912;BME280;6016;41.928;25.556;2023-07-20T13:03:05;98134.56;;;34.64;38.00
11912;BME280;6016;41.928;25.556;2023-07-20T13:05:32;98198.69;;;34.89;36.85
11912;BME280;6016;41.928;25.556;2023-07-20T13:08:01;98210.78;;;34.79;38.46
11912;BME280;6016;41.928;25.556;2023-07-20T13:10:28;97992.22;;;33.18;38.97